createdAt,value
2023-04-17T07:42:16.900Z,9.10
2023-04-17T07:44:44.812Z,9.20
2023-04-17T07:47:12.388Z,9.30
2023-04-17T07:49:40.653Z,9.40
2023-04-17T07:52:08.111Z,9.50
2023-04-17T07:54:35.522Z,9.70
2023-04-17T07:57:03.100Z,9.80
2023-04-17T07:59:31.049Z,9.70
2023-04-17T08:01:58.586Z,9.60
2023-04-17T08:04:26.437Z,9.70
2023-04-17T08:06:54.008Z,9.80
2023-04-17T08:09:22.541Z,9.80
2023-04-17T08:11:56.812Z,9.60
2023-04-17T08:14:25.452Z,9.80
2023-04-17T08:16:53.115Z,9.90
2023-04-17T08:19:20.739Z,10.10
2023-04-17T08:21:50.047Z,10.00
2023-04-17T08:24:19.673Z,10.00
2023-04-17T08:26:48.065Z,9.90
2023-04-17T08:29:15.986Z,10.10
2023-04-17T08:31:43.570Z,10.00
2023-04-17T08:34:14.793Z,10.00
2023-04-17T08:36:43.358Z,10.10
2023-04-17T08:39:12.609Z,10.10
2023-04-17T08:42:03.633Z,10.00
2023-04-17T08:44:31.562Z,10.10
2023-04-17T08:46:59.613Z,10.10
2023-04-17T08:49:34.750Z,10.30
2023-04-17T08:52:08.092Z,10.30
2023-04-17T08:54:36.652Z,10.50
2023-04-17T08:57:06.145Z,10.50
2023-04-17T08:59:33.989Z,10.70
2023-04-17T09:02:08.003Z,10.60
2023-04-17T09:04:45.049Z,10.60
2023-04-17T09:07:15.811Z,10.70
2023-04-17T09:09:57.757Z,10.50
2023-04-17T09:12:27.130Z,10.60
2023-04-17T09:14:54.603Z,10.70
2023-04-17T09:17:22.138Z,10.60
2023-04-17T09:20:11.873Z,10.80
2023-04-17T09:22:41.041Z,10.80
2023-04-17T09:25:21.140Z,10.90
2023-04-17T09:27:48.666Z,10.90
2023-04-17T09:30:16.200Z,11.10
2023-04-17T09:32:43.728Z,10.90
2023-04-17T09:35:11.196Z,11.00
2023-04-17T09:37:55.311Z,10.80
2023-04-17T09:40:25.462Z,10.90
2023-04-17T09:43:07.470Z,10.90
2023-04-17T09:45:38.395Z,10.90
2023-04-17T09:48:12.949Z,11.10
2023-04-17T09:50:41.035Z,11.00
2023-04-17T09:53:09.363Z,11.00
2023-04-17T09:55:38.962Z,10.90
2023-04-17T09:58:08.252Z,11.10
2023-04-17T10:00:37.176Z,11.10
2023-04-17T10:03:07.082Z,11.20
2023-04-17T10:05:36.527Z,11.20
2023-04-17T10:08:04.524Z,10.80
2023-04-17T10:10:34.985Z,11.20
2023-04-17T10:13:11.362Z,11.10
2023-04-17T10:15:39.684Z,11.20
2023-04-17T10:18:24.953Z,11.00
2023-04-17T10:20:55.442Z,11.20
2023-04-17T10:23:35.166Z,11.20
2023-04-17T10:26:28.128Z,11.30
2023-04-17T10:28:59.487Z,11.50
2023-04-17T10:32:11.398Z,11.80
2023-04-17T10:34:41.799Z,11.60
2023-04-17T10:37:15.511Z,11.60
2023-04-17T10:40:01.283Z,11.60
2023-04-17T10:42:33.028Z,11.60
2023-04-17T10:45:04.681Z,11.60
2023-04-17T10:47:36.243Z,11.60
2023-04-17T10:50:08.956Z,11.70
2023-04-17T10:52:42.305Z,11.80
2023-04-17T10:55:23.143Z,11.90
2023-04-17T10:58:12.223Z,11.90
2023-04-17T11:00:52.459Z,11.80
2023-04-17T11:03:24.012Z,11.70
2023-04-17T11:05:52.587Z,11.70
2023-04-17T11:08:20.372Z,11.70
2023-04-17T11:10:52.272Z,11.80
2023-04-17T11:13:19.684Z,11.80
2023-04-17T11:15:47.224Z,12.00
2023-04-17T11:18:14.784Z,12.00
2023-04-17T11:20:42.313Z,11.80
2023-04-17T11:23:09.775Z,11.90
2023-04-17T11:25:38.675Z,12.10
2023-04-17T11:28:07.537Z,12.00
2023-04-17T11:30:45.022Z,12.10
2023-04-17T11:33:12.806Z,12.30
2023-04-17T11:35:42.556Z,12.20
2023-04-17T11:38:23.549Z,12.20
2023-04-17T11:41:01.478Z,12.10
2023-04-17T11:43:36.209Z,12.40
2023-04-17T11:46:05.321Z,12.40
2023-04-17T11:48:32.744Z,12.50
2023-04-17T11:51:06.148Z,12.60
2023-04-17T11:53:36.388Z,12.80
2023-04-17T11:56:20.105Z,13.00
2023-04-17T11:58:59.544Z,13.10
2023-04-17T12:01:29.570Z,13.00
2023-04-17T12:03:59.582Z,13.00
2023-04-17T12:06:39.366Z,12.90
2023-04-17T12:09:07.351Z,13.00
2023-04-17T12:11:35.976Z,13.20
2023-04-17T12:14:11.763Z,13.10
2023-04-17T12:16:39.468Z,13.20
2023-04-17T12:19:07.951Z,13.20
2023-04-17T12:21:35.339Z,13.20
2023-04-17T12:24:02.803Z,13.00
2023-04-17T12:26:30.471Z,13.50
2023-04-17T12:28:58.062Z,13.90
2023-04-17T12:31:25.465Z,13.90
2023-04-17T12:33:52.893Z,13.60
2023-04-17T12:36:20.353Z,14.30
2023-04-17T12:38:47.730Z,14.70
2023-04-17T12:41:15.114Z,15.10
2023-04-17T12:43:42.501Z,15.10
2023-04-17T12:46:09.978Z,15.80
2023-04-17T12:48:37.684Z,16.10
2023-04-17T12:51:05.339Z,16.70
2023-04-17T12:53:32.797Z,16.20
2023-04-17T12:56:00.477Z,16.80
2023-04-17T12:58:28.779Z,16.60
2023-04-17T13:00:56.284Z,17.10
2023-04-17T13:03:23.925Z,16.50
2023-04-17T13:05:53.674Z,15.30
2023-04-17T13:08:21.122Z,15.60
2023-04-17T13:10:48.557Z,15.50
2023-04-17T13:13:15.997Z,15.50
2023-04-17T13:15:45.998Z,15.70
2023-04-17T13:18:13.553Z,15.60
2023-04-17T13:20:41.032Z,15.50
2023-04-17T13:23:10.441Z,15.40
2023-04-17T13:25:37.985Z,15.60
2023-04-17T13:28:05.512Z,15.30
2023-04-17T13:30:33.694Z,15.10
2023-04-17T13:33:01.203Z,15.00
2023-04-17T13:35:28.618Z,14.80
2023-04-17T13:37:57.843Z,14.90
2023-04-17T13:40:25.328Z,15.00
2023-04-17T13:42:52.706Z,14.60
2023-04-17T13:45:20.077Z,14.60
2023-04-17T13:47:47.755Z,14.60
2023-04-17T13:50:15.203Z,14.40
2023-04-17T13:52:42.765Z,14.40
2023-04-17T13:55:13.153Z,14.40
2023-04-17T13:57:40.732Z,15.00
2023-04-17T14:00:10.793Z,15.60
2023-04-17T14:02:38.423Z,15.30
2023-04-17T14:05:06.816Z,15.50
2023-04-17T14:07:34.385Z,15.20
2023-04-17T14:10:01.915Z,14.80
2023-04-17T14:12:29.357Z,14.90
2023-04-17T14:14:58.125Z,15.40
2023-04-17T14:17:25.911Z,15.60
2023-04-17T14:19:53.407Z,16.20
2023-04-17T14:22:21.211Z,16.30
2023-04-17T14:24:48.626Z,16.20
2023-04-17T14:27:16.268Z,16.10
2023-04-17T14:29:43.729Z,16.20
2023-04-17T14:32:11.129Z,15.90
2023-04-17T14:34:38.669Z,16.40
2023-04-17T14:37:06.129Z,16.50
2023-04-17T14:39:33.598Z,16.70
2023-04-17T14:42:02.339Z,16.30
2023-04-17T14:44:29.959Z,16.00
2023-04-17T14:46:57.472Z,15.90
2023-04-17T14:49:24.955Z,15.90
2023-04-17T14:51:52.402Z,15.40
2023-04-17T14:54:19.890Z,15.30
2023-04-17T14:56:47.441Z,15.20
2023-04-17T14:59:15.094Z,14.90
2023-04-17T15:01:42.594Z,14.80
2023-04-17T15:04:10.317Z,14.40
2023-04-17T15:06:39.277Z,14.30
2023-04-17T15:09:07.306Z,14.00
2023-04-17T15:11:34.863Z,14.00
2023-04-17T15:14:02.462Z,13.70
2023-04-17T15:16:31.372Z,13.40
2023-04-17T15:18:58.888Z,13.80
2023-04-17T15:21:26.881Z,13.20
2023-04-17T15:23:54.276Z,13.20
2023-04-17T15:26:21.685Z,13.20
2023-04-17T15:28:49.087Z,13.40
2023-04-17T15:31:16.498Z,13.40
2023-04-17T15:33:45.734Z,14.10
2023-04-17T15:36:13.127Z,14.50
2023-04-17T15:38:40.830Z,14.90
2023-04-17T15:41:10.146Z,15.10
2023-04-17T15:43:38.862Z,15.40
2023-04-17T15:46:06.486Z,15.40
2023-04-17T15:48:33.974Z,15.60
2023-04-17T15:51:04.010Z,15.70
2023-04-17T15:53:33.032Z,15.90
2023-04-17T15:56:00.858Z,15.80
2023-04-17T15:58:28.394Z,15.20
2023-04-17T16:00:55.898Z,14.90
2023-04-17T16:03:23.549Z,15.00
2023-04-17T16:05:52.885Z,14.90
2023-04-17T16:08:21.456Z,14.70
2023-04-17T16:10:48.844Z,14.40
2023-04-17T16:13:16.499Z,14.10
2023-04-17T16:15:45.029Z,13.90
2023-04-17T16:18:13.082Z,13.90
2023-04-17T16:20:40.612Z,14.00
2023-04-17T16:23:08.023Z,14.10
2023-04-17T16:25:35.504Z,13.60
2023-04-17T16:28:03.468Z,13.40
2023-04-17T16:30:31.002Z,13.70
2023-04-17T16:32:58.421Z,13.30
2023-04-17T16:35:26.375Z,13.50
2023-04-17T16:37:53.759Z,13.30
2023-04-17T16:40:21.139Z,13.30
2023-04-17T16:42:48.620Z,12.90
2023-04-17T16:45:16.052Z,12.90
2023-04-17T16:47:43.491Z,13.20
2023-04-17T16:50:12.152Z,12.70
2023-04-17T16:52:41.297Z,12.80
2023-04-17T16:55:09.739Z,12.60
2023-04-17T16:57:40.171Z,12.80
2023-04-17T17:00:10.245Z,12.50
2023-04-17T17:02:38.242Z,12.70
2023-04-17T17:05:08.608Z,12.30
2023-04-17T17:07:36.040Z,12.40
2023-04-17T17:10:04.016Z,12.70
2023-04-17T17:12:31.420Z,12.70
2023-04-17T17:14:59.585Z,12.50
2023-04-17T17:17:27.025Z,12.70
2023-04-17T17:19:54.448Z,12.80
2023-04-17T17:22:21.877Z,12.70
2023-04-17T17:24:49.370Z,12.60
2023-04-17T17:27:16.777Z,12.40
2023-04-17T17:29:44.220Z,12.50
2023-04-17T17:32:11.730Z,12.60
2023-04-17T17:34:39.257Z,12.50
2023-04-17T17:37:06.691Z,12.50
2023-04-17T17:39:34.130Z,12.20
2023-04-17T17:42:04.324Z,12.40
2023-04-17T17:44:32.829Z,12.50
2023-04-17T17:47:02.013Z,12.40
2023-04-17T17:49:29.436Z,12.40
2023-04-17T17:51:56.846Z,12.30
2023-04-17T17:54:24.312Z,12.50
2023-04-17T17:56:51.730Z,12.10
2023-04-17T17:59:21.515Z,12.30
2023-04-17T18:01:48.965Z,11.90
2023-04-17T18:04:16.715Z,11.90
2023-04-17T18:06:44.383Z,11.80
2023-04-17T18:09:11.780Z,12.00
2023-04-17T18:11:39.158Z,11.80
2023-04-17T18:14:06.841Z,12.10
2023-04-17T18:16:36.256Z,11.90
2023-04-17T18:19:05.068Z,11.70
2023-04-17T18:21:32.642Z,12.00
2023-04-17T18:24:00.394Z,12.00
2023-04-17T18:26:27.911Z,12.10
2023-04-17T18:28:55.346Z,11.90
2023-04-17T18:31:24.646Z,11.90
2023-04-17T18:33:52.629Z,12.00
2023-04-17T18:36:20.141Z,11.90
2023-04-17T18:38:47.520Z,12.00
2023-04-17T18:41:14.925Z,11.80
2023-04-17T18:43:42.328Z,11.90
2023-04-17T18:46:09.768Z,11.70
2023-04-17T18:48:37.362Z,11.90
2023-04-17T18:51:17.671Z,11.80
2023-04-17T18:53:45.248Z,11.60
2023-04-17T18:56:16.575Z,11.80
2023-04-17T18:58:43.989Z,11.60
2023-04-17T19:01:11.990Z,11.70
2023-04-17T19:03:40.680Z,11.70
2023-04-17T19:06:08.223Z,11.90
2023-04-17T19:08:36.502Z,11.90
2023-04-17T19:11:04.063Z,12.00
2023-04-17T19:13:31.904Z,11.90
2023-04-17T19:15:59.359Z,11.60
2023-04-17T19:18:26.741Z,11.80
2023-04-17T19:20:54.155Z,11.80
2023-04-17T19:23:21.681Z,11.80
2023-04-17T19:25:56.488Z,11.40
2023-04-17T19:28:25.578Z,11.20
2023-04-17T19:30:53.076Z,11.60
2023-04-17T19:33:20.748Z,11.30
2023-04-17T19:35:48.306Z,11.30
2023-04-17T19:38:17.300Z,11.50
2023-04-17T19:41:17.749Z,11.40
2023-04-17T19:43:51.482Z,11.30
2023-04-17T19:46:22.115Z,11.40
2023-04-17T19:48:50.985Z,11.30
2023-04-17T19:51:18.580Z,11.30
2023-04-17T19:53:47.651Z,11.20
2023-04-17T19:56:15.593Z,11.30
2023-04-17T19:58:43.180Z,11.30
2023-04-17T20:01:10.805Z,11.30
2023-04-17T20:03:39.555Z,11.20
2023-04-17T20:06:08.225Z,11.00
2023-04-17T20:08:35.801Z,11.00
2023-04-17T20:11:04.553Z,10.90
2023-04-17T20:13:31.941Z,10.80
2023-04-17T20:15:59.450Z,10.70
2023-04-17T20:18:27.330Z,10.80
2023-04-17T20:20:54.711Z,10.80
2023-04-17T20:23:22.458Z,10.90
2023-04-17T20:25:50.560Z,11.20
2023-04-17T20:28:17.994Z,11.10
2023-04-17T20:30:45.905Z,11.20
2023-04-17T20:33:13.346Z,10.90
2023-04-17T20:35:42.318Z,11.00
2023-04-17T20:38:09.792Z,10.90
2023-04-17T20:40:37.253Z,11.00
2023-04-17T20:43:04.683Z,11.10
2023-04-17T20:45:32.336Z,10.90
2023-04-17T20:47:59.830Z,10.70
2023-04-17T20:50:27.334Z,10.70
2023-04-17T20:52:54.766Z,10.80
2023-04-17T20:55:22.310Z,10.70
2023-04-17T20:57:49.765Z,10.70
2023-04-17T21:00:17.534Z,10.60
2023-04-17T21:02:45.639Z,10.80
2023-04-17T21:05:13.657Z,10.90
2023-04-17T21:07:41.102Z,10.80
2023-04-17T21:10:09.098Z,10.70
2023-04-17T21:12:36.514Z,10.70
2023-04-17T21:15:04.398Z,10.90
2023-04-17T21:17:31.825Z,10.70
2023-04-17T21:19:59.263Z,10.90
2023-04-17T21:22:26.754Z,10.80
2023-04-17T21:24:54.170Z,10.80
2023-04-17T21:27:21.549Z,10.70
2023-04-17T21:29:49.162Z,10.80
2023-04-17T21:32:16.670Z,10.80
2023-04-17T21:34:44.140Z,10.60
2023-04-17T21:37:11.551Z,10.60
2023-04-17T21:39:39.003Z,10.50
2023-04-17T21:42:06.434Z,10.40
2023-04-17T21:44:33.841Z,10.50
2023-04-17T21:47:01.220Z,10.50
2023-04-17T21:49:28.617Z,10.50
2023-04-17T21:51:56.817Z,10.30
2023-04-17T21:54:25.494Z,10.40
2023-04-17T21:56:53.419Z,10.20
2023-04-17T21:59:20.867Z,10.20
2023-04-17T22:01:48.316Z,10.10
2023-04-17T22:04:15.977Z,10.20
